Currently 61°F in Moreno Valley, California, USA
61°F
61°F / 47°F
3 mph SW
0.00"
Thursday, March 23, 2017 11:26 AM PDT

Moreno Valley, California Weather Summary
Last 36 Hours

Temperature Winds Hourly Humidity Dewpoint
Time Report Norm Report Norm Max Gusts Precip. Rpt. Norm Rpt. Norm Pressure
1,2Thu 11:26 AM  61.0°F  66°F  3 mph SW  4 mph  10 mph  0.00"  64%  46%  48°F  44°F  28.22"
Thu 11:00 AM  59.5°F  65°F  5 mph S  4 mph  10 mph  0.00"  70%  49%  49°F  45°F  28.22"
Thu 10:00 AM  57.1°F  62°F  4 mph SW  2 mph  8 mph  0.00"  81%  58%  51°F  46°F  28.20"
Thu 09:00 AM  53.5°F  58°F  1 mph SW  1 mph  5 mph  0.00"  92%  68%  51°F  47°F  28.17"
Thu 08:00 AM  48.5°F  53°F  calm  1 mph  none  0.00"  98%  75%  48°F  45°F  28.16"
Thu 07:00 AM  47.3°F  49°F  calm  1 mph  none  0.00"  98%  78%  47°F  42°F  28.15"
3Thu 06:38 AM  46.6°F  49°F  calm  1 mph  none  ----  97%  78%  46°F  42°F  28.14"
Thu 06:00 AM  48.0°F  49°F  calm  1 mph  5 mph  0.00"  96%  78%  47°F  42°F  28.13"
Thu 05:00 AM  49.5°F  50°F  calm  1 mph  7 mph  0.00"  96%  77%  48°F  43°F  28.12"
Thu 04:00 AM  49.7°F  50°F  3 mph SE  1 mph  6 mph  0.00"  96%  77%  48°F  43°F  28.12"
Thu 03:00 AM  50.7°F  50°F  3 mph SE  1 mph  7 mph  0.00"  96%  77%  50°F  43°F  28.11"
Thu 02:00 AM  51.9°F  51°F  1 mph S  1 mph  5 mph  0.00"  95%  77%  50°F  44°F  28.11"
Thu 01:00 AM  52.1°F  52°F  2 mph W  1 mph  4 mph  0.00"  95%  75%  51°F  44°F  28.10"
Thu 12:00 AM  52.0°F  53°F  calm  1 mph  7 mph  0.00"  95%  74%  51°F  45°F  28.11"
Wed 11:00 PM  52.4°F  54°F  calm  1 mph  5 mph  0.00"  94%  71%  51°F  45°F  28.11"
Wed 10:00 PM  53.1°F  56°F  1 mph SW  2 mph  16 mph  0.00"  92%  67%  51°F  45°F  28.11"
Wed 09:00 PM  53.2°F  58°F  9 mph W  2 mph  14 mph  0.00"  91%  63%  50°F  45°F  28.11"
Wed 08:00 PM  54.0°F  60°F  7 mph W  4 mph  20 mph  0.00"  88%  58%  51°F  45°F  28.08"
Wed 07:00 PM  57.0°F  64°F  5 mph W  4 mph  20 mph  0.00"  82%  51%  51°F  44°F  28.07"
Wed 06:00 PM  60.8°F  69°F  10 mph W  6 mph  17 mph  0.00"  69%  42%  50°F  44°F  28.06"
Wed 05:00 PM  65.6°F  71°F  9 mph W  6 mph  19 mph  0.00"  62%  37%  52°F  43°F  28.05"
Wed 04:00 PM  67.2°F  73°F  7 mph SW  6 mph  14 mph  0.00"  60%  35%  52°F  42°F  28.06"
Wed 03:00 PM  66.9°F  73°F  5 mph SW  6 mph  16 mph  0.00"  65%  34%  54°F  42°F  28.08"
Wed 02:00 PM  64.9°F  72°F  7 mph W  6 mph  16 mph  0.00"  71%  35%  55°F  42°F  28.12"
Wed 01:00 PM  64.0°F  70°F  10 mph W  5 mph  14 mph  0.00"  80%  37%  57°F  42°F  28.13"
Wed 12:00 PM  61.3°F  68°F  6 mph W  5 mph  9 mph  0.00"  95%  41%  60°F  43°F  28.15"
Wed 11:00 AM  58.1°F  65°F  calm  4 mph  9 mph  0.00"  100%  48%  58°F  44°F  28.16"
Wed 10:00 AM  57.0°F  62°F  4 mph W  3 mph  6 mph  0.00"  100%  57%  57°F  46°F  28.16"
Wed 09:00 AM  56.6°F  58°F  calm  2 mph  5 mph  0.00"  100%  66%  57°F  46°F  28.16"
Wed 08:00 AM  55.4°F  53°F  calm  1 mph  none  0.00"  100%  74%  55°F  45°F  28.15"
Wed 07:00 AM  55.0°F  50°F  calm  1 mph  3 mph  0.00"  100%  77%  55°F  42°F  28.15"
Wed 06:00 AM  54.9°F  50°F  1 mph SE  1 mph  6 mph  0.01"  100%  77%  55°F  43°F  28.14"
Wed 05:00 AM  55.1°F  50°F  calm  1 mph  5 mph  0.00"  100%  76%  55°F  43°F  28.13"
Wed 04:00 AM  54.7°F  51°F  calm  1 mph  6 mph  0.00"  100%  76%  55°F  43°F  28.13"
Wed 03:00 AM  54.8°F  51°F  3 mph S  1 mph  8 mph  0.01"  100%  76%  55°F  43°F  28.15"
Wed 02:00 AM  54.9°F  51°F  5 mph SE  1 mph  8 mph  0.01"  100%  76%  55°F  44°F  28.16"
Wed 01:00 AM  55.2°F  52°F  1 mph SE  1 mph  8 mph  0.01"  100%  75%  55°F  44°F  28.17"
Wed 12:00 AM  55.4°F  53°F  3 mph SE  1 mph  7 mph  0.01"  100%  73%  55°F  45°F  28.17"

  1. Current weather data. No green row appears if the current weather data is also the high or low for the current day.
  2. High temperature for the current day.
  3. Low temperature for the current day.

The Moreno Valley, California weather pages are a service of WeatherCurrents. Moreno Valley is located in Southern California's Inland Empire, east of Riverside and north of Perris, along the State Route 60 freeway.
Copyright ©Thu Mar 23 11:27:44 PDT 2017  WeatherCurrents. All rights reserved. - Submit questions and comments - Privacy Policy

This page automatically refreshes every 10 minutes.